sensor_id;sensor_type;location;lat;lon;timestamp;P1;durP1;ratioP1;P2;durP2;ratioP2
2956;SDS011;1488;51.548;7.222;2024-01-27T00:00:48;7.20;;;4.20;;
2956;SDS011;1488;51.548;7.222;2024-01-27T00:03:17;7.07;;;4.23;;
2956;SDS011;1488;51.548;7.222;2024-01-27T00:05:44;4.47;;;4.07;;
2956;SDS011;1488;51.548;7.222;2024-01-27T00:08:10;5.73;;;3.57;;
2956;SDS011;1488;51.548;7.222;2024-01-27T00:10:37;4.93;;;3.57;;
2956;SDS011;1488;51.548;7.222;2024-01-27T00:13:05;4.73;;;4.03;;
2956;SDS011;1488;51.548;7.222;2024-01-27T00:15:32;7.57;;;3.63;;
2956;SDS011;1488;51.548;7.222;2024-01-27T00:17:59;5.30;;;3.80;;
2956;SDS011;1488;51.548;7.222;2024-01-27T00:20:26;4.40;;;3.57;;
2956;SDS011;1488;51.548;7.222;2024-01-27T00:22:53;10.20;;;3.53;;
2956;SDS011;1488;51.548;7.222;2024-01-27T00:25:20;5.03;;;4.07;;
2956;SDS011;1488;51.548;7.222;2024-01-27T00:27:47;5.57;;;3.83;;
2956;SDS011;1488;51.548;7.222;2024-01-27T00:30:15;5.10;;;3.83;;
2956;SDS011;1488;51.548;7.222;2024-01-27T00:32:42;6.37;;;3.73;;
2956;SDS011;1488;51.548;7.222;2024-01-27T00:35:08;6.40;;;3.67;;
2956;SDS011;1488;51.548;7.222;2024-01-27T00:37:36;5.17;;;3.37;;
2956;SDS011;1488;51.548;7.222;2024-01-27T00:40:03;4.53;;;3.23;;
2956;SDS011;1488;51.548;7.222;2024-01-27T00:42:33;4.73;;;3.40;;
2956;SDS011;1488;51.548;7.222;2024-01-27T00:45:00;5.40;;;3.90;;
2956;SDS011;1488;51.548;7.222;2024-01-27T00:47:28;4.90;;;3.17;;
2956;SDS011;1488;51.548;7.222;2024-01-27T00:49:55;5.17;;;3.70;;
2956;SDS011;1488;51.548;7.222;2024-01-27T00:52:22;3.60;;;2.57;;
2956;SDS011;1488;51.548;7.222;2024-01-27T00:54:49;3.70;;;3.00;;
2956;SDS011;1488;51.548;7.222;2024-01-27T00:57:16;4.20;;;2.93;;
2956;SDS011;1488;51.548;7.222;2024-01-27T00:59:42;5.73;;;2.97;;
2956;SDS011;1488;51.548;7.222;2024-01-27T01:02:09;4.13;;;3.37;;
2956;SDS011;1488;51.548;7.222;2024-01-27T01:04:38;3.87;;;3.10;;
2956;SDS011;1488;51.548;7.222;2024-01-27T01:07:05;4.00;;;3.20;;
2956;SDS011;1488;51.548;7.222;2024-01-27T01:09:33;4.53;;;3.20;;
2956;SDS011;1488;51.548;7.222;2024-01-27T01:12:00;3.90;;;2.80;;
2956;SDS011;1488;51.548;7.222;2024-01-27T01:14:27;4.23;;;2.83;;
2956;SDS011;1488;51.548;7.222;2024-01-27T01:16:54;4.60;;;2.80;;
2956;SDS011;1488;51.548;7.222;2024-01-27T01:19:21;5.30;;;3.33;;
2956;SDS011;1488;51.548;7.222;2024-01-27T01:21:49;3.80;;;2.97;;
2956;SDS011;1488;51.548;7.222;2024-01-27T01:24:16;4.63;;;3.00;;
2956;SDS011;1488;51.548;7.222;2024-01-27T01:26:43;4.83;;;3.00;;
2956;SDS011;1488;51.548;7.222;2024-01-27T01:29:10;3.93;;;2.80;;
2956;SDS011;1488;51.548;7.222;2024-01-27T01:31:37;3.70;;;2.50;;
2956;SDS011;1488;51.548;7.222;2024-01-27T01:34:04;4.50;;;3.23;;
2956;SDS011;1488;51.548;7.222;2024-01-27T01:36:31;4.23;;;3.00;;
2956;SDS011;1488;51.548;7.222;2024-01-27T01:38:59;3.90;;;2.50;;
2956;SDS011;1488;51.548;7.222;2024-01-27T01:41:26;4.03;;;3.23;;
2956;SDS011;1488;51.548;7.222;2024-01-27T01:43:53;3.87;;;2.97;;
2956;SDS011;1488;51.548;7.222;2024-01-27T01:46:21;5.13;;;2.40;;
2956;SDS011;1488;51.548;7.222;2024-01-27T01:48:48;5.50;;;2.90;;
2956;SDS011;1488;51.548;7.222;2024-01-27T01:51:15;4.33;;;3.37;;
2956;SDS011;1488;51.548;7.222;2024-01-27T01:53:43;5.60;;;3.13;;
2956;SDS011;1488;51.548;7.222;2024-01-27T01:56:14;3.33;;;2.40;;
2956;SDS011;1488;51.548;7.222;2024-01-27T01:58:41;4.47;;;2.70;;
2956;SDS011;1488;51.548;7.222;2024-01-27T02:01:08;4.40;;;2.67;;
2956;SDS011;1488;51.548;7.222;2024-01-27T02:03:36;3.50;;;2.33;;
2956;SDS011;1488;51.548;7.222;2024-01-27T02:06:03;3.43;;;2.30;;
2956;SDS011;1488;51.548;7.222;2024-01-27T02:08:30;4.70;;;3.50;;
2956;SDS011;1488;51.548;7.222;2024-01-27T02:10:56;3.87;;;2.57;;
2956;SDS011;1488;51.548;7.222;2024-01-27T02:13:27;3.80;;;2.43;;
2956;SDS011;1488;51.548;7.222;2024-01-27T02:15:54;3.47;;;2.40;;
2956;SDS011;1488;51.548;7.222;2024-01-27T02:18:21;3.47;;;2.50;;
2956;SDS011;1488;51.548;7.222;2024-01-27T02:20:48;3.57;;;2.67;;
2956;SDS011;1488;51.548;7.222;2024-01-27T02:23:15;3.07;;;2.47;;
2956;SDS011;1488;51.548;7.222;2024-01-27T02:25:43;2.97;;;2.20;;
2956;SDS011;1488;51.548;7.222;2024-01-27T02:28:10;3.60;;;2.33;;
2956;SDS011;1488;51.548;7.222;2024-01-27T02:30:37;3.90;;;2.57;;
2956;SDS011;1488;51.548;7.222;2024-01-27T02:33:04;3.70;;;2.80;;
2956;SDS011;1488;51.548;7.222;2024-01-27T02:35:33;3.23;;;2.20;;
2956;SDS011;1488;51.548;7.222;2024-01-27T02:38:00;2.83;;;1.97;;
2956;SDS011;1488;51.548;7.222;2024-01-27T02:40:26;2.63;;;1.87;;
2956;SDS011;1488;51.548;7.222;2024-01-27T02:42:55;2.97;;;2.40;;
2956;SDS011;1488;51.548;7.222;2024-01-27T02:45:21;3.87;;;2.60;;
2956;SDS011;1488;51.548;7.222;2024-01-27T02:47:48;3.70;;;3.00;;
2956;SDS011;1488;51.548;7.222;2024-01-27T02:50:15;3.00;;;2.30;;
2956;SDS011;1488;51.548;7.222;2024-01-27T02:52:42;3.03;;;2.10;;
2956;SDS011;1488;51.548;7.222;2024-01-27T02:55:09;2.80;;;2.10;;
2956;SDS011;1488;51.548;7.222;2024-01-27T02:57:36;3.97;;;2.87;;
2956;SDS011;1488;51.548;7.222;2024-01-27T03:00:04;2.90;;;2.17;;
2956;SDS011;1488;51.548;7.222;2024-01-27T03:02:32;3.83;;;1.97;;
2956;SDS011;1488;51.548;7.222;2024-01-27T03:04:59;2.73;;;1.90;;
2956;SDS011;1488;51.548;7.222;2024-01-27T03:07:26;3.70;;;2.57;;
2956;SDS011;1488;51.548;7.222;2024-01-27T03:09:53;3.37;;;2.10;;
2956;SDS011;1488;51.548;7.222;2024-01-27T03:12:20;3.60;;;2.00;;
2956;SDS011;1488;51.548;7.222;2024-01-27T03:14:48;2.93;;;2.40;;
2956;SDS011;1488;51.548;7.222;2024-01-27T03:17:17;4.43;;;2.40;;
2956;SDS011;1488;51.548;7.222;2024-01-27T03:19:50;3.30;;;2.20;;
2956;SDS011;1488;51.548;7.222;2024-01-27T03:22:16;3.40;;;1.97;;
2956;SDS011;1488;51.548;7.222;2024-01-27T03:24:43;6.00;;;2.13;;
2956;SDS011;1488;51.548;7.222;2024-01-27T03:27:10;3.93;;;2.10;;
2956;SDS011;1488;51.548;7.222;2024-01-27T03:29:37;2.97;;;2.20;;
2956;SDS011;1488;51.548;7.222;2024-01-27T03:32:04;4.00;;;2.47;;
2956;SDS011;1488;51.548;7.222;2024-01-27T03:34:33;3.27;;;2.10;;
2956;SDS011;1488;51.548;7.222;2024-01-27T03:36:59;3.20;;;1.90;;
2956;SDS011;1488;51.548;7.222;2024-01-27T03:39:26;3.40;;;2.50;;
2956;SDS011;1488;51.548;7.222;2024-01-27T03:41:53;2.93;;;1.93;;
2956;SDS011;1488;51.548;7.222;2024-01-27T03:44:20;5.60;;;2.43;;
2956;SDS011;1488;51.548;7.222;2024-01-27T03:46:47;4.30;;;2.00;;
2956;SDS011;1488;51.548;7.222;2024-01-27T03:49:16;3.43;;;1.97;;
2956;SDS011;1488;51.548;7.222;2024-01-27T03:51:44;3.83;;;2.20;;
2956;SDS011;1488;51.548;7.222;2024-01-27T03:54:11;2.47;;;2.03;;
2956;SDS011;1488;51.548;7.222;2024-01-27T03:56:39;4.30;;;2.33;;
2956;SDS011;1488;51.548;7.222;2024-01-27T03:59:06;4.30;;;2.27;;
2956;SDS011;1488;51.548;7.222;2024-01-27T04:01:34;3.00;;;1.80;;
2956;SDS011;1488;51.548;7.222;2024-01-27T04:04:01;3.10;;;2.40;;
2956;SDS011;1488;51.548;7.222;2024-01-27T04:06:27;2.70;;;2.10;;
2956;SDS011;1488;51.548;7.222;2024-01-27T04:08:56;4.37;;;2.30;;
2956;SDS011;1488;51.548;7.222;2024-01-27T04:11:22;3.23;;;2.03;;
2956;SDS011;1488;51.548;7.222;2024-01-27T04:13:49;3.43;;;2.53;;
2956;SDS011;1488;51.548;7.222;2024-01-27T04:16:16;3.37;;;2.03;;
2956;SDS011;1488;51.548;7.222;2024-01-27T04:18:43;2.90;;;1.73;;
2956;SDS011;1488;51.548;7.222;2024-01-27T04:21:10;3.57;;;2.00;;
2956;SDS011;1488;51.548;7.222;2024-01-27T04:23:37;2.30;;;1.70;;
2956;SDS011;1488;51.548;7.222;2024-01-27T04:26:05;4.20;;;2.17;;
2956;SDS011;1488;51.548;7.222;2024-01-27T04:28:34;3.23;;;2.03;;
2956;SDS011;1488;51.548;7.222;2024-01-27T04:31:01;2.60;;;1.83;;
2956;SDS011;1488;51.548;7.222;2024-01-27T04:33:28;2.70;;;1.80;;
2956;SDS011;1488;51.548;7.222;2024-01-27T04:35:55;3.77;;;1.90;;
2956;SDS011;1488;51.548;7.222;2024-01-27T04:38:22;2.30;;;1.80;;
2956;SDS011;1488;51.548;7.222;2024-01-27T04:40:49;3.80;;;1.80;;
2956;SDS011;1488;51.548;7.222;2024-01-27T04:43:18;2.60;;;1.77;;
2956;SDS011;1488;51.548;7.222;2024-01-27T04:45:46;3.83;;;2.10;;
2956;SDS011;1488;51.548;7.222;2024-01-27T04:48:13;3.47;;;2.27;;
2956;SDS011;1488;51.548;7.222;2024-01-27T04:50:40;3.30;;;2.00;;
2956;SDS011;1488;51.548;7.222;2024-01-27T04:53:07;2.17;;;1.70;;
2956;SDS011;1488;51.548;7.222;2024-01-27T04:55:34;3.13;;;2.10;;
2956;SDS011;1488;51.548;7.222;2024-01-27T04:58:01;2.60;;;1.60;;
2956;SDS011;1488;51.548;7.222;2024-01-27T05:00:29;2.53;;;1.90;;
2956;SDS011;1488;51.548;7.222;2024-01-27T05:02:56;2.80;;;1.80;;
2956;SDS011;1488;51.548;7.222;2024-01-27T05:05:28;3.80;;;1.83;;
2956;SDS011;1488;51.548;7.222;2024-01-27T05:07:55;3.10;;;2.13;;
2956;SDS011;1488;51.548;7.222;2024-01-27T05:10:21;2.50;;;1.90;;
2956;SDS011;1488;51.548;7.222;2024-01-27T05:12:50;2.43;;;1.93;;
2956;SDS011;1488;51.548;7.222;2024-01-27T05:15:17;3.30;;;2.00;;
2956;SDS011;1488;51.548;7.222;2024-01-27T05:17:45;4.53;;;2.00;;
2956;SDS011;1488;51.548;7.222;2024-01-27T05:20:12;3.03;;;1.80;;
2956;SDS011;1488;51.548;7.222;2024-01-27T05:22:39;2.17;;;1.47;;
2956;SDS011;1488;51.548;7.222;2024-01-27T05:25:06;2.53;;;1.80;;
2956;SDS011;1488;51.548;7.222;2024-01-27T05:27:34;2.80;;;1.97;;
2956;SDS011;1488;51.548;7.222;2024-01-27T05:30:03;2.03;;;1.60;;
2956;SDS011;1488;51.548;7.222;2024-01-27T05:32:30;3.40;;;2.10;;
2956;SDS011;1488;51.548;7.222;2024-01-27T05:34:59;3.40;;;2.00;;
2956;SDS011;1488;51.548;7.222;2024-01-27T05:37:25;2.10;;;1.70;;
2956;SDS011;1488;51.548;7.222;2024-01-27T05:39:52;2.63;;;1.60;;
2956;SDS011;1488;51.548;7.222;2024-01-27T05:42:19;1.97;;;1.37;;
2956;SDS011;1488;51.548;7.222;2024-01-27T05:44:46;2.10;;;1.60;;
2956;SDS011;1488;51.548;7.222;2024-01-27T05:47:12;2.80;;;1.70;;
2956;SDS011;1488;51.548;7.222;2024-01-27T05:49:39;2.87;;;1.87;;
2956;SDS011;1488;51.548;7.222;2024-01-27T05:52:07;3.50;;;1.93;;
2956;SDS011;1488;51.548;7.222;2024-01-27T05:54:35;2.97;;;1.90;;
2956;SDS011;1488;51.548;7.222;2024-01-27T05:57:02;2.60;;;1.30;;
2956;SDS011;1488;51.548;7.222;2024-01-27T05:59:29;1.90;;;1.50;;
2956;SDS011;1488;51.548;7.222;2024-01-27T06:01:57;1.80;;;1.30;;
2956;SDS011;1488;51.548;7.222;2024-01-27T06:04:24;3.03;;;1.67;;
2956;SDS011;1488;51.548;7.222;2024-01-27T06:06:51;2.13;;;1.70;;
2956;SDS011;1488;51.548;7.222;2024-01-27T06:09:19;2.07;;;1.50;;
2956;SDS011;1488;51.548;7.222;2024-01-27T06:11:46;2.10;;;1.53;;
2956;SDS011;1488;51.548;7.222;2024-01-27T06:14:16;2.77;;;1.83;;
2956;SDS011;1488;51.548;7.222;2024-01-27T06:16:43;2.80;;;1.60;;
2956;SDS011;1488;51.548;7.222;2024-01-27T06:19:11;2.80;;;1.87;;
2956;SDS011;1488;51.548;7.222;2024-01-27T06:21:41;2.50;;;1.93;;
2956;SDS011;1488;51.548;7.222;2024-01-27T06:24:08;2.87;;;1.60;;
2956;SDS011;1488;51.548;7.222;2024-01-27T06:26:36;2.57;;;1.83;;
2956;SDS011;1488;51.548;7.222;2024-01-27T06:29:07;2.70;;;1.63;;
2956;SDS011;1488;51.548;7.222;2024-01-27T06:31:34;2.83;;;1.70;;
2956;SDS011;1488;51.548;7.222;2024-01-27T06:34:02;3.93;;;1.73;;
2956;SDS011;1488;51.548;7.222;2024-01-27T06:36:29;2.13;;;1.50;;
2956;SDS011;1488;51.548;7.222;2024-01-27T06:38:57;2.67;;;1.77;;
2956;SDS011;1488;51.548;7.222;2024-01-27T06:41:24;2.40;;;1.60;;
2956;SDS011;1488;51.548;7.222;2024-01-27T06:43:52;2.47;;;1.73;;
2956;SDS011;1488;51.548;7.222;2024-01-27T06:46:19;2.17;;;1.40;;
2956;SDS011;1488;51.548;7.222;2024-01-27T06:48:46;3.07;;;1.67;;
2956;SDS011;1488;51.548;7.222;2024-01-27T06:51:12;2.50;;;1.50;;
2956;SDS011;1488;51.548;7.222;2024-01-27T06:53:39;2.77;;;1.90;;
2956;SDS011;1488;51.548;7.222;2024-01-27T06:56:06;2.40;;;1.60;;
2956;SDS011;1488;51.548;7.222;2024-01-27T06:58:33;2.53;;;1.50;;
2956;SDS011;1488;51.548;7.222;2024-01-27T07:01:03;2.70;;;1.80;;
2956;SDS011;1488;51.548;7.222;2024-01-27T07:03:29;2.67;;;1.77;;
2956;SDS011;1488;51.548;7.222;2024-01-27T07:05:56;2.67;;;1.77;;
2956;SDS011;1488;51.548;7.222;2024-01-27T07:08:26;5.10;;;2.03;;
2956;SDS011;1488;51.548;7.222;2024-01-27T07:10:53;4.73;;;2.03;;
2956;SDS011;1488;51.548;7.222;2024-01-27T07:13:19;2.33;;;1.50;;
2956;SDS011;1488;51.548;7.222;2024-01-27T07:15:46;3.80;;;1.70;;
2956;SDS011;1488;51.548;7.222;2024-01-27T07:18:14;4.07;;;1.73;;
2956;SDS011;1488;51.548;7.222;2024-01-27T07:20:42;3.13;;;2.07;;
2956;SDS011;1488;51.548;7.222;2024-01-27T07:23:09;3.70;;;1.87;;
2956;SDS011;1488;51.548;7.222;2024-01-27T07:25:36;5.90;;;1.93;;
2956;SDS011;1488;51.548;7.222;2024-01-27T07:28:03;4.50;;;1.67;;
2956;SDS011;1488;51.548;7.222;2024-01-27T07:30:30;2.60;;;2.03;;
2956;SDS011;1488;51.548;7.222;2024-01-27T07:32:57;7.63;;;2.17;;
2956;SDS011;1488;51.548;7.222;2024-01-27T07:35:25;4.60;;;2.83;;
2956;SDS011;1488;51.548;7.222;2024-01-27T07:37:56;5.50;;;2.40;;
2956;SDS011;1488;51.548;7.222;2024-01-27T07:40:23;5.47;;;2.73;;
2956;SDS011;1488;51.548;7.222;2024-01-27T07:42:50;3.30;;;1.80;;
2956;SDS011;1488;51.548;7.222;2024-01-27T07:45:17;3.00;;;1.93;;
2956;SDS011;1488;51.548;7.222;2024-01-27T07:47:44;5.00;;;2.70;;
2956;SDS011;1488;51.548;7.222;2024-01-27T07:50:11;6.87;;;2.33;;
2956;SDS011;1488;51.548;7.222;2024-01-27T07:52:39;8.43;;;3.07;;
2956;SDS011;1488;51.548;7.222;2024-01-27T07:55:06;6.30;;;2.47;;
2956;SDS011;1488;51.548;7.222;2024-01-27T07:57:33;6.50;;;3.27;;
2956;SDS011;1488;51.548;7.222;2024-01-27T08:00:00;7.93;;;3.63;;
2956;SDS011;1488;51.548;7.222;2024-01-27T08:02:28;7.93;;;3.90;;
2956;SDS011;1488;51.548;7.222;2024-01-27T08:04:55;6.63;;;3.97;;
2956;SDS011;1488;51.548;7.222;2024-01-27T08:07:22;7.17;;;4.10;;
2956;SDS011;1488;51.548;7.222;2024-01-27T08:09:50;8.63;;;4.30;;
2956;SDS011;1488;51.548;7.222;2024-01-27T08:12:17;6.17;;;4.23;;
2956;SDS011;1488;51.548;7.222;2024-01-27T08:14:44;6.33;;;4.17;;
2956;SDS011;1488;51.548;7.222;2024-01-27T08:17:10;10.07;;;5.00;;
2956;SDS011;1488;51.548;7.222;2024-01-27T08:19:38;7.63;;;5.23;;
2956;SDS011;1488;51.548;7.222;2024-01-27T08:22:05;7.90;;;4.27;;
2956;SDS011;1488;51.548;7.222;2024-01-27T08:24:34;8.33;;;3.60;;
2956;SDS011;1488;51.548;7.222;2024-01-27T08:27:02;11.53;;;3.63;;
2956;SDS011;1488;51.548;7.222;2024-01-27T08:29:30;8.70;;;4.60;;
2956;SDS011;1488;51.548;7.222;2024-01-27T08:31:58;7.33;;;4.70;;
2956;SDS011;1488;51.548;7.222;2024-01-27T08:34:25;15.37;;;6.60;;
2956;SDS011;1488;51.548;7.222;2024-01-27T08:36:53;14.87;;;6.00;;
2956;SDS011;1488;51.548;7.222;2024-01-27T08:39:23;13.27;;;6.07;;
2956;SDS011;1488;51.548;7.222;2024-01-27T08:41:50;11.70;;;5.80;;
2956;SDS011;1488;51.548;7.222;2024-01-27T08:44:19;8.60;;;5.90;;
2956;SDS011;1488;51.548;7.222;2024-01-27T08:46:46;9.77;;;5.40;;
2956;SDS011;1488;51.548;7.222;2024-01-27T08:49:13;7.30;;;4.07;;
2956;SDS011;1488;51.548;7.222;2024-01-27T08:51:40;9.03;;;4.23;;
2956;SDS011;1488;51.548;7.222;2024-01-27T08:54:07;8.53;;;5.53;;
2956;SDS011;1488;51.548;7.222;2024-01-27T08:56:33;14.60;;;6.50;;
2956;SDS011;1488;51.548;7.222;2024-01-27T08:59:05;13.63;;;6.07;;
2956;SDS011;1488;51.548;7.222;2024-01-27T09:01:33;12.93;;;5.70;;
2956;SDS011;1488;51.548;7.222;2024-01-27T09:04:00;14.33;;;6.00;;
2956;SDS011;1488;51.548;7.222;2024-01-27T09:06:27;13.07;;;7.00;;
2956;SDS011;1488;51.548;7.222;2024-01-27T09:08:55;10.57;;;5.73;;
2956;SDS011;1488;51.548;7.222;2024-01-27T09:11:22;10.87;;;5.53;;
2956;SDS011;1488;51.548;7.222;2024-01-27T09:13:52;13.43;;;5.93;;
2956;SDS011;1488;51.548;7.222;2024-01-27T09:16:19;13.13;;;7.20;;
2956;SDS011;1488;51.548;7.222;2024-01-27T09:18:47;10.83;;;6.87;;
2956;SDS011;1488;51.548;7.222;2024-01-27T09:21:15;10.77;;;6.77;;
2956;SDS011;1488;51.548;7.222;2024-01-27T09:23:45;11.47;;;6.87;;
2956;SDS011;1488;51.548;7.222;2024-01-27T09:26:12;14.60;;;7.67;;
2956;SDS011;1488;51.548;7.222;2024-01-27T09:28:40;11.27;;;7.63;;
2956;SDS011;1488;51.548;7.222;2024-01-27T09:31:09;10.40;;;6.53;;
2956;SDS011;1488;51.548;7.222;2024-01-27T09:33:36;10.67;;;7.30;;
2956;SDS011;1488;51.548;7.222;2024-01-27T09:36:04;12.60;;;7.23;;
2956;SDS011;1488;51.548;7.222;2024-01-27T09:38:31;15.17;;;7.50;;
2956;SDS011;1488;51.548;7.222;2024-01-27T09:40:58;10.57;;;7.23;;
2956;SDS011;1488;51.548;7.222;2024-01-27T09:43:25;12.20;;;6.53;;
2956;SDS011;1488;51.548;7.222;2024-01-27T09:45:56;10.97;;;7.27;;
2956;SDS011;1488;51.548;7.222;2024-01-27T09:48:22;7.87;;;6.10;;
2956;SDS011;1488;51.548;7.222;2024-01-27T09:50:50;9.83;;;6.50;;
2956;SDS011;1488;51.548;7.222;2024-01-27T09:53:19;9.23;;;5.97;;
2956;SDS011;1488;51.548;7.222;2024-01-27T09:55:46;9.40;;;6.30;;
2956;SDS011;1488;51.548;7.222;2024-01-27T09:58:14;9.90;;;8.00;;
2956;SDS011;1488;51.548;7.222;2024-01-27T10:00:41;12.30;;;7.20;;
2956;SDS011;1488;51.548;7.222;2024-01-27T10:03:08;11.70;;;7.33;;
2956;SDS011;1488;51.548;7.222;2024-01-27T10:05:36;12.13;;;7.27;;
2956;SDS011;1488;51.548;7.222;2024-01-27T10:08:06;10.70;;;7.20;;
2956;SDS011;1488;51.548;7.222;2024-01-27T10:11:06;13.70;;;7.30;;
2956;SDS011;1488;51.548;7.222;2024-01-27T10:13:36;13.83;;;7.60;;
2956;SDS011;1488;51.548;7.222;2024-01-27T10:16:04;9.90;;;6.60;;
2956;SDS011;1488;51.548;7.222;2024-01-27T10:18:32;13.27;;;7.90;;
2956;SDS011;1488;51.548;7.222;2024-01-27T10:21:00;10.87;;;6.93;;
2956;SDS011;1488;51.548;7.222;2024-01-27T10:23:38;9.80;;;7.70;;
2956;SDS011;1488;51.548;7.222;2024-01-27T10:26:08;9.40;;;7.30;;
2956;SDS011;1488;51.548;7.222;2024-01-27T10:28:35;14.00;;;7.43;;
2956;SDS011;1488;51.548;7.222;2024-01-27T10:31:07;9.00;;;7.57;;
2956;SDS011;1488;51.548;7.222;2024-01-27T10:33:34;11.00;;;7.93;;
2956;SDS011;1488;51.548;7.222;2024-01-27T10:36:01;10.10;;;7.43;;
2956;SDS011;1488;51.548;7.222;2024-01-27T10:38:35;12.20;;;6.50;;
2956;SDS011;1488;51.548;7.222;2024-01-27T10:41:02;9.97;;;6.30;;
2956;SDS011;1488;51.548;7.222;2024-01-27T10:43:35;17.43;;;7.13;;
2956;SDS011;1488;51.548;7.222;2024-01-27T10:46:02;13.30;;;7.30;;
2956;SDS011;1488;51.548;7.222;2024-01-27T10:48:32;12.17;;;7.03;;
2956;SDS011;1488;51.548;7.222;2024-01-27T10:51:02;19.03;;;6.37;;
2956;SDS011;1488;51.548;7.222;2024-01-27T10:53:35;13.70;;;6.20;;
2956;SDS011;1488;51.548;7.222;2024-01-27T10:56:04;10.83;;;6.77;;
2956;SDS011;1488;51.548;7.222;2024-01-27T10:58:34;12.73;;;6.70;;
2956;SDS011;1488;51.548;7.222;2024-01-27T11:01:05;15.13;;;7.60;;
2956;SDS011;1488;51.548;7.222;2024-01-27T11:03:35;11.40;;;7.50;;
2956;SDS011;1488;51.548;7.222;2024-01-27T11:06:05;10.97;;;7.67;;
2956;SDS011;1488;51.548;7.222;2024-01-27T11:08:32;13.90;;;7.70;;
2956;SDS011;1488;51.548;7.222;2024-01-27T11:11:00;10.33;;;7.00;;
2956;SDS011;1488;51.548;7.222;2024-01-27T11:13:29;8.57;;;6.00;;
2956;SDS011;1488;51.548;7.222;2024-01-27T11:15:58;12.77;;;8.17;;
2956;SDS011;1488;51.548;7.222;2024-01-27T11:18:25;13.13;;;6.90;;
2956;SDS011;1488;51.548;7.222;2024-01-27T11:20:52;9.90;;;7.30;;
2956;SDS011;1488;51.548;7.222;2024-01-27T11:23:19;11.17;;;7.10;;
2956;SDS011;1488;51.548;7.222;2024-01-27T11:26:02;9.47;;;7.03;;
2956;SDS011;1488;51.548;7.222;2024-01-27T11:28:31;11.70;;;6.47;;
2956;SDS011;1488;51.548;7.222;2024-01-27T11:30:58;9.50;;;6.20;;
2956;SDS011;1488;51.548;7.222;2024-01-27T11:33:29;12.13;;;6.17;;
2956;SDS011;1488;51.548;7.222;2024-01-27T11:36:02;8.60;;;5.73;;
2956;SDS011;1488;51.548;7.222;2024-01-27T11:38:30;8.63;;;6.07;;
2956;SDS011;1488;51.548;7.222;2024-01-27T11:40:59;7.23;;;5.30;;
2956;SDS011;1488;51.548;7.222;2024-01-27T11:43:27;9.20;;;5.60;;
2956;SDS011;1488;51.548;7.222;2024-01-27T11:45:56;6.80;;;4.63;;
2956;SDS011;1488;51.548;7.222;2024-01-27T11:48:23;9.63;;;5.83;;
2956;SDS011;1488;51.548;7.222;2024-01-27T11:51:00;7.23;;;4.90;;
2956;SDS011;1488;51.548;7.222;2024-01-27T11:53:32;9.90;;;5.60;;
2956;SDS011;1488;51.548;7.222;2024-01-27T11:55:59;9.30;;;5.20;;
2956;SDS011;1488;51.548;7.222;2024-01-27T11:58:26;7.00;;;5.00;;
2956;SDS011;1488;51.548;7.222;2024-01-27T12:00:56;9.70;;;5.80;;
2956;SDS011;1488;51.548;7.222;2024-01-27T12:03:23;9.30;;;5.30;;
2956;SDS011;1488;51.548;7.222;2024-01-27T12:05:50;6.37;;;4.83;;
2956;SDS011;1488;51.548;7.222;2024-01-27T12:08:17;7.83;;;5.23;;
2956;SDS011;1488;51.548;7.222;2024-01-27T12:10:44;8.23;;;5.33;;
2956;SDS011;1488;51.548;7.222;2024-01-27T12:13:10;8.53;;;5.77;;
2956;SDS011;1488;51.548;7.222;2024-01-27T12:15:39;8.27;;;4.47;;
2956;SDS011;1488;51.548;7.222;2024-01-27T12:18:07;12.37;;;4.80;;
2956;SDS011;1488;51.548;7.222;2024-01-27T12:20:34;8.30;;;5.10;;
2956;SDS011;1488;51.548;7.222;2024-01-27T12:23:04;5.80;;;4.17;;
2956;SDS011;1488;51.548;7.222;2024-01-27T12:25:31;6.37;;;4.40;;
2956;SDS011;1488;51.548;7.222;2024-01-27T12:28:01;7.60;;;4.20;;
2956;SDS011;1488;51.548;7.222;2024-01-27T12:30:28;9.70;;;4.20;;
2956;SDS011;1488;51.548;7.222;2024-01-27T12:32:57;10.50;;;4.33;;
2956;SDS011;1488;51.548;7.222;2024-01-27T12:35:25;7.40;;;4.60;;
2956;SDS011;1488;51.548;7.222;2024-01-27T12:37:54;6.23;;;4.53;;
2956;SDS011;1488;51.548;7.222;2024-01-27T12:40:21;8.70;;;4.00;;
2956;SDS011;1488;51.548;7.222;2024-01-27T12:42:48;5.70;;;3.90;;
2956;SDS011;1488;51.548;7.222;2024-01-27T12:45:15;5.93;;;3.80;;
2956;SDS011;1488;51.548;7.222;2024-01-27T12:47:42;9.87;;;4.50;;
2956;SDS011;1488;51.548;7.222;2024-01-27T12:50:09;7.57;;;4.80;;
2956;SDS011;1488;51.548;7.222;2024-01-27T12:52:37;7.93;;;3.83;;
2956;SDS011;1488;51.548;7.222;2024-01-27T12:55:04;5.37;;;4.03;;
2956;SDS011;1488;51.548;7.222;2024-01-27T12:57:33;6.97;;;4.40;;
2956;SDS011;1488;51.548;7.222;2024-01-27T13:00:00;8.23;;;4.63;;
2956;SDS011;1488;51.548;7.222;2024-01-27T13:02:29;5.07;;;3.70;;
2956;SDS011;1488;51.548;7.222;2024-01-27T13:04:56;7.97;;;4.43;;
2956;SDS011;1488;51.548;7.222;2024-01-27T13:07:28;6.10;;;3.50;;
2956;SDS011;1488;51.548;7.222;2024-01-27T13:10:11;7.63;;;4.07;;
2956;SDS011;1488;51.548;7.222;2024-01-27T13:12:38;5.23;;;3.87;;
2956;SDS011;1488;51.548;7.222;2024-01-27T13:15:07;7.43;;;3.77;;
2956;SDS011;1488;51.548;7.222;2024-01-27T13:17:35;4.53;;;3.27;;
2956;SDS011;1488;51.548;7.222;2024-01-27T13:20:02;6.37;;;3.50;;
2956;SDS011;1488;51.548;7.222;2024-01-27T13:22:30;5.43;;;3.60;;
2956;SDS011;1488;51.548;7.222;2024-01-27T13:24:57;5.70;;;3.73;;
2956;SDS011;1488;51.548;7.222;2024-01-27T13:27:28;6.37;;;3.80;;
2956;SDS011;1488;51.548;7.222;2024-01-27T13:29:54;4.50;;;3.30;;
2956;SDS011;1488;51.548;7.222;2024-01-27T13:32:21;8.10;;;3.63;;
2956;SDS011;1488;51.548;7.222;2024-01-27T13:34:48;4.90;;;3.33;;
2956;SDS011;1488;51.548;7.222;2024-01-27T13:37:15;5.53;;;3.23;;
2956;SDS011;1488;51.548;7.222;2024-01-27T13:39:42;6.90;;;3.13;;
2956;SDS011;1488;51.548;7.222;2024-01-27T13:42:08;4.60;;;2.97;;
2956;SDS011;1488;51.548;7.222;2024-01-27T13:44:36;8.13;;;3.50;;
2956;SDS011;1488;51.548;7.222;2024-01-27T13:47:04;6.10;;;3.73;;
2956;SDS011;1488;51.548;7.222;2024-01-27T13:49:31;7.13;;;3.33;;
2956;SDS011;1488;51.548;7.222;2024-01-27T13:51:58;4.97;;;3.33;;
2956;SDS011;1488;51.548;7.222;2024-01-27T13:54:25;5.60;;;3.23;;
2956;SDS011;1488;51.548;7.222;2024-01-27T13:56:51;5.00;;;3.10;;
2956;SDS011;1488;51.548;7.222;2024-01-27T13:59:18;4.50;;;2.60;;
2956;SDS011;1488;51.548;7.222;2024-01-27T14:01:48;4.10;;;3.30;;
2956;SDS011;1488;51.548;7.222;2024-01-27T14:04:14;5.20;;;3.43;;
2956;SDS011;1488;51.548;7.222;2024-01-27T14:06:41;4.80;;;2.50;;
2956;SDS011;1488;51.548;7.222;2024-01-27T14:09:08;5.40;;;3.00;;
2956;SDS011;1488;51.548;7.222;2024-01-27T14:11:35;4.60;;;3.07;;
2956;SDS011;1488;51.548;7.222;2024-01-27T14:14:02;5.00;;;2.40;;
2956;SDS011;1488;51.548;7.222;2024-01-27T14:16:29;11.10;;;2.77;;
2956;SDS011;1488;51.548;7.222;2024-01-27T14:18:58;3.43;;;2.87;;
2956;SDS011;1488;51.548;7.222;2024-01-27T14:21:25;3.37;;;2.60;;
2956;SDS011;1488;51.548;7.222;2024-01-27T14:23:52;4.33;;;2.73;;
2956;SDS011;1488;51.548;7.222;2024-01-27T14:26:25;4.80;;;3.17;;
2956;SDS011;1488;51.548;7.222;2024-01-27T14:28:53;6.20;;;3.00;;
2956;SDS011;1488;51.548;7.222;2024-01-27T14:31:20;5.10;;;2.73;;
2956;SDS011;1488;51.548;7.222;2024-01-27T14:33:47;7.83;;;2.40;;
2956;SDS011;1488;51.548;7.222;2024-01-27T14:36:15;5.10;;;3.17;;
2956;SDS011;1488;51.548;7.222;2024-01-27T14:38:42;4.13;;;2.47;;
2956;SDS011;1488;51.548;7.222;2024-01-27T14:41:09;5.20;;;2.77;;
2956;SDS011;1488;51.548;7.222;2024-01-27T14:43:37;5.37;;;2.70;;
2956;SDS011;1488;51.548;7.222;2024-01-27T14:46:04;7.13;;;2.80;;
2956;SDS011;1488;51.548;7.222;2024-01-27T14:48:31;5.80;;;2.37;;
2956;SDS011;1488;51.548;7.222;2024-01-27T14:50:58;4.37;;;2.80;;
2956;SDS011;1488;51.548;7.222;2024-01-27T14:53:26;5.23;;;2.50;;
2956;SDS011;1488;51.548;7.222;2024-01-27T14:55:53;3.50;;;2.37;;
2956;SDS011;1488;51.548;7.222;2024-01-27T14:58:21;3.50;;;2.50;;
2956;SDS011;1488;51.548;7.222;2024-01-27T15:00:48;2.90;;;1.97;;
2956;SDS011;1488;51.548;7.222;2024-01-27T15:03:17;3.83;;;2.40;;
2956;SDS011;1488;51.548;7.222;2024-01-27T15:05:44;12.00;;;2.80;;
2956;SDS011;1488;51.548;7.222;2024-01-27T15:08:11;4.87;;;2.80;;
2956;SDS011;1488;51.548;7.222;2024-01-27T15:10:39;4.90;;;2.17;;
2956;SDS011;1488;51.548;7.222;2024-01-27T15:13:07;4.53;;;2.57;;
2956;SDS011;1488;51.548;7.222;2024-01-27T15:15:35;3.73;;;1.90;;